Airfield :
LOGIN :

Register | Disclaimer

   EN    FR    IT 

 










Legend :    VFR   Marginal VFR   IFR   Intensive IFR   Very Intensive IFR
Visi :
Ceiling :
>= 8 km
>= 3000ft
5 to 8 km
1000 to 3000 ft
1500m to 5 km
500 to 1000 ft
800 to 1500m
200 to 500 ft
< 800m
< 200 ft
Symbols :   Thunderstorms  Fog  Heavy snow  Heavy precipitations  Wind > 20 kt
SIGMETs :     Misc.  Thunderstorms  Icing  Turbulence  Mountain Waves  Volcanic Ashes






- Airport Elevation : 362 ft
- IATA code : WAW


EPWA - Warsaw Okecie

CURRENT METAR :
  • 151730Z 21006KT 190V310 CAVOK 07/04 Q1004 NOSIG

EXPIRED METARs :
  • 151700Z 17006KT 9999 SCT030 05/02 Q1004 NOSIG
  • 151630Z 20005KT 9999 BKN031 06/02 Q1004 NOSIG
  • 151600Z 16009KT 9999 SCT032 06/02 Q1003 NOSIG
  • 151530Z 17007KT 9999 BKN032 06/02 Q1004 NOSIG
  • 151500Z 16008KT 9999 BKN045 06/02 Q1004 NOSIG

TAF TAF EPWA
Valid from the 15 at 18:00 until the 16 at 18:00 UTC


151730Z 1518/1618 22010KT CAVOK
PROB40
TEMPO 1518/1521 -RA BKN014
BECMG 1610/1613 16006KT



MET'MAP, your aeronautical weather chart ! - Copyright ORBIFLY December 2007 - Disclaimer

ORBIFLY MET'MAP TEAM :

Programming & Development : Alexandra Zaïnal
Concept & original design : Baudouin d'Aumeries
Assistance for programming : Marc-Olivier Méhu
Technical & hardware support : Manuel Goepfert

Contact : metmap@orbifly.com




SOURCES & CREDITS :

   NOAA